createdAt,value
2023-03-01T00:00:31.632Z,0.00
2023-03-01T00:01:31.594Z,0.00
2023-03-01T00:02:31.562Z,0.00
2023-03-01T00:03:31.467Z,0.00
2023-03-01T00:04:31.374Z,0.00
2023-03-01T00:05:31.313Z,0.00
2023-03-01T00:06:31.698Z,0.00
2023-03-01T00:07:31.166Z,0.00
2023-03-01T00:08:31.169Z,0.00
2023-03-01T00:09:31.066Z,0.00
2023-03-01T00:10:31.000Z,0.00
2023-03-01T00:11:30.943Z,0.00
2023-03-01T00:12:30.883Z,0.00
2023-03-01T00:13:30.809Z,0.00
2023-03-01T00:14:30.761Z,0.00
2023-03-01T00:15:30.660Z,0.00
2023-03-01T00:16:31.033Z,0.00
2023-03-01T00:17:30.555Z,0.00
2023-03-01T00:18:30.493Z,0.00
2023-03-01T00:19:30.436Z,0.00
2023-03-01T00:20:32.351Z,0.00
2023-03-01T00:21:30.280Z,0.00
2023-03-01T00:22:30.266Z,0.00
2023-03-01T00:23:30.210Z,0.00
2023-03-01T00:24:30.141Z,0.00
2023-03-01T00:25:30.050Z,0.00
2023-03-01T00:26:30.348Z,0.00
2023-03-01T00:27:29.922Z,0.00
2023-03-01T00:28:29.863Z,0.00
2023-03-01T00:29:29.796Z,0.00
2023-03-01T00:30:29.767Z,0.00
2023-03-01T00:31:29.698Z,0.00
2023-03-01T00:34:08.550Z,0.00
2023-03-01T00:35:09.537Z,0.00
2023-03-01T00:36:09.475Z,0.00
2023-03-01T00:37:09.357Z,0.00
2023-03-01T00:38:09.337Z,0.00
2023-03-01T00:39:09.290Z,0.00
2023-03-01T00:40:09.189Z,0.00
2023-03-01T00:41:09.129Z,0.00
2023-03-01T00:42:09.107Z,0.00
2023-03-01T00:43:09.021Z,0.00
2023-03-01T00:44:09.148Z,0.00
2023-03-01T00:45:08.918Z,0.00
2023-03-01T00:46:08.887Z,0.00
2023-03-01T00:47:08.719Z,0.00
2023-03-01T00:48:08.682Z,0.00
2023-03-01T00:49:08.665Z,0.00
2023-03-01T00:50:29.570Z,0.00
2023-03-01T00:51:08.493Z,0.00
2023-03-01T00:52:08.435Z,0.00
2023-03-01T00:53:08.344Z,0.00
2023-03-01T00:54:08.303Z,0.00
2023-03-01T00:55:08.273Z,0.00
2023-03-01T00:56:08.191Z,0.00
2023-03-01T00:57:08.122Z,0.00
2023-03-01T00:58:08.040Z,0.00
2023-03-01T00:59:07.990Z,0.00
2023-03-01T01:00:07.958Z,0.00
2023-03-01T01:01:07.849Z,0.00
2023-03-01T01:02:07.864Z,0.00
2023-03-01T01:03:07.708Z,0.00
2023-03-01T01:04:07.647Z,0.00
2023-03-01T01:05:07.610Z,0.00
2023-03-01T01:06:07.572Z,0.00
2023-03-01T01:07:07.506Z,0.00
2023-03-01T01:08:07.458Z,0.00
2023-03-01T01:09:07.378Z,0.00
2023-03-01T01:10:07.276Z,0.00
2023-03-01T01:11:07.230Z,0.00
2023-03-01T01:12:07.164Z,0.00
2023-03-01T01:13:07.106Z,0.00
2023-03-01T01:14:07.041Z,0.00
2023-03-01T01:15:06.970Z,0.00
2023-03-01T01:16:06.928Z,0.00
2023-03-01T01:17:06.843Z,0.00
2023-03-01T01:18:06.830Z,0.00
2023-03-01T01:19:06.728Z,0.00
2023-03-01T01:20:06.653Z,0.00
2023-03-01T01:21:06.582Z,0.00
2023-03-01T01:22:06.515Z,0.00
2023-03-01T01:23:06.475Z,0.00
2023-03-01T01:24:06.425Z,0.00
2023-03-01T01:25:06.360Z,0.00
2023-03-01T01:26:06.307Z,0.00
2023-03-01T01:27:06.214Z,0.00
2023-03-01T01:28:06.146Z,0.00
2023-03-01T01:29:06.062Z,0.00
2023-03-01T01:30:06.005Z,0.00
2023-03-01T01:31:05.967Z,0.00
2023-03-01T01:32:06.029Z,0.00
2023-03-01T01:33:05.812Z,0.00
2023-03-01T01:34:05.792Z,0.00
2023-03-01T01:35:05.712Z,0.00
2023-03-01T01:36:05.678Z,0.00
2023-03-01T01:37:05.606Z,0.00
2023-03-01T01:38:05.550Z,0.00
2023-03-01T01:39:05.460Z,0.00
2023-03-01T01:40:05.415Z,0.00
2023-03-01T01:41:05.354Z,0.00
2023-03-01T01:42:05.270Z,0.00
2023-03-01T01:43:05.172Z,0.00
2023-03-01T01:44:05.145Z,0.00
2023-03-01T01:45:05.046Z,0.00
2023-03-01T01:46:05.011Z,0.00
2023-03-01T01:47:04.924Z,0.00
2023-03-01T01:48:04.852Z,0.00
2023-03-01T01:49:04.822Z,0.00
2023-03-01T01:50:05.795Z,0.00
2023-03-01T01:51:04.725Z,0.00
2023-03-01T01:52:04.641Z,0.00
2023-03-01T01:53:04.568Z,0.00
2023-03-01T01:54:04.502Z,0.00
2023-03-01T01:55:04.413Z,0.00
2023-03-01T01:56:04.364Z,0.00
2023-03-01T01:57:04.310Z,0.00
2023-03-01T01:58:04.260Z,0.00
2023-03-01T01:59:04.195Z,0.00
2023-03-01T02:00:04.137Z,0.00
2023-03-01T02:01:04.027Z,0.00
2023-03-01T02:02:25.045Z,0.00
2023-03-01T02:03:04.076Z,0.00
2023-03-01T02:04:03.837Z,0.00
2023-03-01T02:05:03.784Z,0.00
2023-03-01T02:06:03.714Z,0.00
2023-03-01T02:07:03.703Z,0.00
2023-03-01T02:08:03.636Z,0.00
2023-03-01T02:09:03.554Z,0.00
2023-03-01T02:10:03.537Z,0.00
2023-03-01T02:11:04.436Z,0.00
2023-03-01T02:12:04.487Z,0.00
2023-03-01T02:13:04.291Z,0.00
2023-03-01T02:14:05.144Z,0.00
2023-03-01T02:15:05.228Z,0.00
2023-03-01T02:16:03.133Z,0.00
2023-03-01T02:17:03.059Z,0.00
2023-03-01T02:18:03.003Z,0.00
2023-03-01T02:19:02.949Z,0.00
2023-03-01T02:21:12.108Z,0.00
2023-03-01T02:22:13.024Z,0.00
2023-03-01T02:23:12.942Z,0.00
2023-03-01T02:24:12.897Z,0.00
2023-03-01T02:25:12.832Z,0.00
2023-03-01T02:26:12.827Z,0.00
2023-03-01T02:27:12.749Z,0.00
2023-03-01T02:28:12.671Z,0.00
2023-03-01T02:29:12.630Z,0.00
2023-03-01T02:30:12.513Z,0.00
2023-03-01T02:31:12.461Z,0.00
2023-03-01T02:32:12.414Z,0.00
2023-03-01T02:33:12.303Z,0.00
2023-03-01T02:34:12.244Z,0.00
2023-03-01T02:35:12.211Z,0.00
2023-03-01T02:36:12.108Z,0.00
2023-03-01T02:37:12.854Z,0.00
2023-03-01T02:39:51.011Z,0.00
2023-03-01T02:40:51.922Z,0.00
2023-03-01T02:41:51.839Z,0.00
2023-03-01T02:42:51.802Z,0.00
2023-03-01T02:43:51.795Z,0.00
2023-03-01T02:44:51.645Z,0.00
2023-03-01T02:45:51.612Z,0.00
2023-03-01T02:46:51.608Z,0.00
2023-03-01T02:47:51.485Z,0.00
2023-03-01T02:48:51.421Z,0.00
2023-03-01T02:49:51.381Z,0.00
2023-03-01T02:50:51.327Z,0.00
2023-03-01T02:51:51.201Z,0.00
2023-03-01T02:52:51.170Z,0.00
2023-03-01T02:53:51.111Z,0.00
2023-03-01T02:54:51.014Z,0.00
2023-03-01T02:57:30.003Z,0.00
2023-03-01T02:58:30.914Z,0.00
2023-03-01T02:59:30.902Z,0.00
2023-03-01T03:00:30.851Z,0.00
2023-03-01T03:01:30.758Z,0.00
2023-03-01T03:02:30.688Z,0.00
2023-03-01T03:03:30.637Z,0.00
2023-03-01T03:04:30.566Z,0.00
2023-03-01T03:05:30.476Z,0.00
2023-03-01T03:06:30.836Z,0.00
2023-03-01T03:07:30.352Z,0.00
2023-03-01T03:08:30.288Z,0.00
2023-03-01T03:09:30.247Z,0.00
2023-03-01T03:10:30.129Z,0.00
2023-03-01T03:11:30.125Z,0.00
2023-03-01T03:12:30.041Z,0.00
2023-03-01T03:13:30.003Z,0.00
2023-03-01T03:14:29.932Z,0.00
2023-03-01T03:15:29.894Z,0.00
2023-03-01T03:16:30.229Z,0.00
2023-03-01T03:17:29.715Z,0.00
2023-03-01T03:18:29.649Z,0.00
2023-03-01T03:19:29.623Z,0.00
2023-03-01T03:20:29.528Z,0.00
2023-03-01T03:21:29.489Z,0.00
2023-03-01T03:22:29.395Z,0.00
2023-03-01T03:23:29.397Z,0.00
2023-03-01T03:24:29.310Z,0.00
2023-03-01T03:25:29.246Z,0.00
2023-03-01T03:26:29.782Z,0.00
2023-03-01T03:27:29.118Z,0.00
2023-03-01T03:28:29.051Z,0.00
2023-03-01T03:29:28.951Z,0.00
2023-03-01T03:30:28.914Z,0.00
2023-03-01T03:31:28.905Z,0.00
2023-03-01T03:32:28.846Z,0.00
2023-03-01T03:33:28.687Z,0.00
2023-03-01T03:34:28.635Z,0.00
2023-03-01T03:35:28.575Z,0.00
2023-03-01T03:36:28.728Z,0.00
2023-03-01T03:37:28.458Z,0.00
2023-03-01T03:38:28.417Z,0.00
2023-03-01T03:39:28.321Z,0.00
2023-03-01T03:40:28.265Z,0.00
2023-03-01T03:41:28.220Z,0.00
2023-03-01T03:42:28.107Z,0.00
2023-03-01T03:43:28.056Z,0.00
2023-03-01T03:44:28.002Z,0.00
2023-03-01T03:45:28.047Z,0.00
2023-03-01T03:46:27.875Z,0.00
2023-03-01T03:47:27.792Z,0.00
2023-03-01T03:48:27.757Z,0.00
2023-03-01T03:49:48.641Z,0.00
2023-03-01T03:50:27.599Z,0.00
2023-03-01T03:51:27.562Z,0.00
2023-03-01T03:52:27.487Z,0.00
2023-03-01T03:53:27.418Z,0.00
2023-03-01T03:54:27.351Z,0.00
2023-03-01T03:55:27.301Z,0.00
2023-03-01T03:56:28.791Z,0.00
2023-03-01T03:57:27.169Z,0.00
2023-03-01T03:58:27.150Z,0.00
2023-03-01T03:59:27.054Z,0.00
2023-03-01T04:00:26.989Z,0.00
2023-03-01T04:01:26.950Z,0.00
2023-03-01T04:02:26.877Z,0.00
2023-03-01T04:03:26.839Z,0.00
2023-03-01T04:04:26.800Z,0.00
2023-03-01T04:05:26.680Z,0.00
2023-03-01T04:06:26.613Z,0.00
2023-03-01T04:07:47.535Z,0.00
2023-03-01T04:08:26.458Z,0.00
2023-03-01T04:09:26.397Z,0.00
2023-03-01T04:10:26.361Z,0.00
2023-03-01T04:11:26.301Z,0.00
2023-03-01T04:12:26.261Z,0.00
2023-03-01T04:13:26.186Z,0.00
2023-03-01T04:14:26.095Z,0.00
2023-03-01T04:15:26.073Z,0.00
2023-03-01T04:16:26.012Z,0.00
2023-03-01T04:17:25.920Z,0.00
2023-03-01T04:18:25.851Z,0.00
2023-03-01T04:19:25.806Z,0.00
2023-03-01T04:20:25.731Z,0.00
2023-03-01T04:21:25.638Z,0.00
2023-03-01T04:22:25.610Z,0.00
2023-03-01T04:23:25.568Z,0.00
2023-03-01T04:24:25.502Z,0.00
2023-03-01T04:25:46.373Z,0.00
2023-03-01T04:26:25.358Z,0.00
2023-03-01T04:27:25.280Z,0.00
2023-03-01T04:28:25.226Z,0.00
2023-03-01T04:29:25.161Z,0.00
2023-03-01T04:30:25.181Z,0.00
2023-03-01T04:31:25.147Z,0.00
2023-03-01T04:32:25.096Z,0.00
2023-03-01T04:33:24.941Z,0.00
2023-03-01T04:34:24.873Z,0.00
2023-03-01T04:35:24.897Z,0.00
2023-03-01T04:36:24.865Z,0.00
2023-03-01T04:37:24.956Z,0.00
2023-03-01T04:38:24.607Z,0.00
2023-03-01T04:39:24.549Z,0.00
2023-03-01T04:40:24.458Z,0.00
2023-03-01T04:41:24.371Z,0.00
2023-03-01T04:42:24.396Z,0.00
2023-03-01T04:43:24.292Z,0.00
2023-03-01T04:44:24.211Z,0.00
2023-03-01T04:45:24.211Z,0.00
2023-03-01T04:46:45.098Z,0.00
2023-03-01T04:47:24.027Z,0.00
2023-03-01T04:48:23.985Z,0.00
2023-03-01T04:49:23.958Z,0.00
2023-03-01T04:50:23.854Z,0.00
2023-03-01T04:51:23.790Z,0.00
2023-03-01T04:52:23.711Z,0.00
2023-03-01T04:53:23.614Z,0.00
2023-03-01T04:54:23.547Z,0.00
2023-03-01T04:55:23.507Z,0.00
2023-03-01T04:56:23.478Z,0.00
2023-03-01T04:57:23.368Z,0.00
2023-03-01T04:58:23.323Z,0.00
2023-03-01T04:59:23.262Z,0.00
2023-03-01T05:00:23.222Z,0.00
2023-03-01T05:01:44.126Z,0.00
2023-03-01T05:02:23.094Z,0.00
2023-03-01T05:03:22.981Z,0.00
2023-03-01T05:04:22.982Z,0.00
2023-03-01T05:05:22.934Z,0.00
2023-03-01T05:06:22.815Z,0.00
2023-03-01T05:07:22.788Z,0.00
2023-03-01T05:08:22.690Z,0.00
2023-03-01T05:09:22.628Z,0.00
2023-03-01T05:10:22.569Z,0.00
2023-03-01T05:11:22.479Z,0.00
2023-03-01T05:12:22.428Z,0.00
2023-03-01T05:13:22.380Z,0.00
2023-03-01T05:14:22.315Z,0.00
2023-03-01T05:15:22.246Z,0.00
2023-03-01T05:16:22.163Z,0.00
2023-03-01T05:17:22.124Z,0.00
2023-03-01T05:18:22.031Z,0.00
2023-03-01T05:19:21.995Z,0.00
2023-03-01T05:20:21.961Z,0.00
2023-03-01T05:21:21.842Z,0.00
2023-03-01T05:22:21.806Z,0.00
2023-03-01T05:23:21.746Z,0.00
2023-03-01T05:24:21.682Z,0.00
2023-03-01T05:25:21.656Z,0.00
2023-03-01T05:26:28.181Z,0.00
2023-03-01T05:27:21.471Z,0.00
2023-03-01T05:28:21.422Z,0.00
2023-03-01T05:29:21.393Z,0.00
2023-03-01T05:30:21.270Z,0.00
2023-03-01T05:33:30.007Z,0.00
2023-03-01T05:34:30.863Z,1.00
2023-03-01T05:35:30.879Z,0.00
2023-03-01T05:36:31.090Z,1.00
2023-03-01T05:38:40.007Z,0.00
2023-03-01T05:39:40.834Z,0.00
2023-03-01T05:40:40.783Z,2.00
2023-03-01T05:41:40.702Z,1.00
2023-03-01T05:42:40.700Z,0.00
2023-03-01T05:43:40.560Z,2.00
2023-03-01T05:44:40.488Z,1.00
2023-03-01T05:45:40.448Z,6.00
2023-03-01T05:46:40.332Z,3.00
2023-03-01T05:47:40.335Z,2.00
2023-03-01T05:48:40.236Z,1.00
2023-03-01T05:49:40.225Z,2.00
2023-03-01T05:50:40.098Z,8.00
2023-03-01T05:51:40.046Z,6.00
2023-03-01T05:52:39.994Z,6.00
2023-03-01T05:53:39.902Z,7.00
2023-03-01T05:54:39.854Z,8.00
2023-03-01T05:55:39.829Z,10.00
2023-03-01T05:56:39.762Z,12.00
2023-03-01T05:57:39.662Z,12.00
2023-03-01T05:58:39.677Z,20.00
2023-03-01T05:59:39.515Z,22.00
2023-03-01T06:00:39.483Z,24.00
2023-03-01T06:01:39.433Z,31.00
2023-03-01T06:02:40.182Z,33.00
2023-03-01T06:03:39.312Z,37.00
2023-03-01T06:04:39.312Z,39.00
2023-03-01T06:05:39.142Z,45.00
2023-03-01T06:06:39.073Z,48.00
2023-03-01T06:07:39.052Z,60.00
2023-03-01T06:08:38.952Z,67.00
2023-03-01T06:09:38.933Z,70.00
2023-03-01T06:10:38.828Z,72.00
2023-03-01T06:11:38.785Z,82.00
2023-03-01T06:12:38.756Z,89.00
2023-03-01T06:13:38.731Z,96.00
2023-03-01T06:14:38.583Z,107.00
2023-03-01T06:15:38.550Z,118.00
2023-03-01T06:16:38.461Z,122.00
2023-03-01T06:17:38.412Z,129.00
2023-03-01T06:18:38.365Z,140.00
2023-03-01T06:19:38.271Z,146.00
2023-03-01T06:20:38.191Z,161.00
2023-03-01T06:21:38.176Z,165.00
2023-03-01T06:22:38.112Z,175.00
2023-03-01T06:23:38.015Z,181.00
2023-03-01T06:24:37.991Z,186.00
2023-03-01T06:25:37.917Z,187.00
2023-03-01T06:26:37.812Z,194.00
2023-03-01T06:27:37.771Z,195.00
2023-03-01T06:28:37.713Z,185.00
2023-03-01T06:29:37.620Z,159.00
2023-03-01T06:30:37.610Z,150.00
2023-03-01T06:31:58.530Z,170.00
2023-03-01T06:32:37.472Z,193.00
2023-03-01T06:33:37.398Z,214.00
2023-03-01T06:34:37.296Z,239.00
2023-03-01T06:35:37.385Z,281.00
2023-03-01T06:36:37.244Z,285.00
2023-03-01T06:37:37.159Z,287.00
2023-03-01T06:38:37.115Z,325.00
2023-03-01T06:39:36.996Z,383.00
2023-03-01T06:40:36.921Z,446.00
2023-03-01T06:41:36.879Z,460.00
2023-03-01T06:42:36.857Z,484.00
2023-03-01T06:43:37.041Z,530.00
2023-03-01T06:44:36.666Z,587.00
2023-03-01T06:45:36.620Z,643.00
2023-03-01T06:46:36.603Z,691.00
2023-03-01T06:47:36.487Z,752.00
2023-03-01T06:48:36.442Z,801.00
2023-03-01T06:51:16.102Z,985.00
2023-03-01T06:52:16.257Z,953.00
2023-03-01T06:53:16.162Z,979.00
2023-03-01T06:54:16.095Z,1103.00
2023-03-01T06:55:16.040Z,1172.00
2023-03-01T06:56:15.971Z,1031.00
2023-03-01T06:57:15.905Z,931.00
2023-03-01T06:58:15.871Z,1161.00
2023-03-01T06:59:15.768Z,1222.00
2023-03-01T07:00:15.716Z,1246.00
2023-03-01T07:01:15.688Z,1388.00
2023-03-01T07:02:15.578Z,1472.00
2023-03-01T07:03:15.552Z,1465.00
2023-03-01T07:04:15.451Z,1527.00
2023-03-01T07:05:15.378Z,1577.00
2023-03-01T07:06:15.328Z,1599.00
2023-03-01T07:07:15.245Z,1676.00
2023-03-01T07:09:54.085Z,1868.00
2023-03-01T07:10:55.021Z,1844.00
2023-03-01T07:11:54.935Z,1887.00
2023-03-01T07:12:54.853Z,1929.00
2023-03-01T07:13:54.804Z,1967.00
2023-03-01T07:14:54.814Z,2042.00
2023-03-01T07:15:54.683Z,2064.00
2023-03-01T07:16:54.620Z,2084.00
2023-03-01T07:17:54.574Z,2247.00
2023-03-01T07:18:54.527Z,2334.00
2023-03-01T07:19:54.491Z,2303.00
2023-03-01T07:20:54.348Z,2304.00
2023-03-01T07:21:54.299Z,2235.00
2023-03-01T07:22:54.218Z,2198.00
2023-03-01T07:23:54.143Z,2145.00
2023-03-01T07:24:54.085Z,2146.00
2023-03-01T07:25:54.076Z,2340.00
2023-03-01T07:26:54.027Z,2821.00
2023-03-01T07:27:53.929Z,2716.00
2023-03-01T07:28:53.857Z,2443.00
2023-03-01T07:29:53.804Z,2264.00
2023-03-01T07:30:53.766Z,2403.00
2023-03-01T07:31:53.776Z,2700.00
2023-03-01T07:32:55.628Z,2817.00
2023-03-01T07:33:53.565Z,2762.00
2023-03-01T07:34:53.460Z,2487.00
2023-03-01T07:35:53.494Z,2536.00
2023-03-01T07:36:53.332Z,3477.00
2023-03-01T07:37:53.294Z,3438.00
2023-03-01T07:38:53.268Z,2998.00
2023-03-01T07:39:53.152Z,2858.00
2023-03-01T07:40:53.115Z,2877.00
2023-03-01T07:41:53.004Z,2799.00
2023-03-01T07:42:52.943Z,2650.00
2023-03-01T07:43:52.913Z,2633.00
2023-03-01T07:45:13.828Z,2542.00
2023-03-01T07:45:52.853Z,2626.00
2023-03-01T07:46:52.714Z,2547.00
2023-03-01T07:47:52.676Z,2614.00
2023-03-01T07:48:52.561Z,2659.00
2023-03-01T07:49:52.524Z,3048.00
2023-03-01T07:50:52.479Z,3340.00
2023-03-01T07:51:52.390Z,3693.00
2023-03-01T07:52:52.338Z,3375.00
2023-03-01T07:53:52.276Z,3747.00
2023-03-01T07:54:52.235Z,4885.00
2023-03-01T07:55:52.140Z,4529.00
2023-03-01T07:56:52.085Z,5618.00
2023-03-01T07:57:52.020Z,5339.00
2023-03-01T07:58:51.957Z,5904.00
2023-03-01T07:59:51.899Z,6781.00
2023-03-01T08:00:51.834Z,6738.00
2023-03-01T08:01:51.818Z,3959.00
2023-03-01T08:03:12.704Z,3977.00
2023-03-01T08:03:51.644Z,6579.00
2023-03-01T08:04:51.581Z,8330.00
2023-03-01T08:05:51.526Z,7733.00
2023-03-01T08:06:51.453Z,9499.00
2023-03-01T08:07:51.360Z,5876.00
2023-03-01T08:08:51.358Z,5139.00
2023-03-01T08:09:51.261Z,5968.00
2023-03-01T08:10:51.213Z,4089.00
2023-03-01T08:11:51.213Z,9865.00
2023-03-01T08:12:51.082Z,13917.00
2023-03-01T08:13:51.851Z,10019.00
2023-03-01T08:14:50.965Z,6596.00
2023-03-01T08:15:50.861Z,4843.00
2023-03-01T08:16:50.869Z,4807.00
2023-03-01T08:17:50.755Z,4221.00
2023-03-01T08:18:50.732Z,3719.00
2023-03-01T08:19:50.709Z,3545.00
2023-03-01T08:20:50.619Z,3828.00
2023-03-01T08:21:50.531Z,3892.00
2023-03-01T08:22:50.443Z,3742.00
2023-03-01T08:23:50.376Z,3807.00
2023-03-01T08:24:50.707Z,3789.00
2023-03-01T08:25:50.293Z,3775.00
2023-03-01T08:26:50.255Z,3560.00
2023-03-01T08:27:50.177Z,3133.00
2023-03-01T08:28:50.076Z,2479.00
2023-03-01T08:29:50.034Z,3626.00
2023-03-01T08:30:49.926Z,7173.00
2023-03-01T08:31:53.796Z,6934.00
2023-03-01T08:32:50.036Z,9140.00
2023-03-01T08:33:49.732Z,6472.00
2023-03-01T08:34:50.615Z,5517.00
2023-03-01T08:35:50.316Z,6786.00
2023-03-01T08:36:49.601Z,4791.00
2023-03-01T08:37:49.537Z,6093.00
2023-03-01T08:39:10.400Z,10123.00
2023-03-01T08:39:49.506Z,9324.00
2023-03-01T08:40:49.319Z,6695.00
2023-03-01T08:41:49.238Z,4152.00
2023-03-01T08:42:49.199Z,6486.00
2023-03-01T08:43:49.135Z,8519.00
2023-03-01T08:44:49.095Z,7544.00
2023-03-01T08:45:49.200Z,5658.00
2023-03-01T08:46:48.950Z,4107.00
2023-03-01T08:47:48.859Z,2889.00
2023-03-01T08:48:48.851Z,2434.00
2023-03-01T08:49:48.760Z,2931.00
2023-03-01T08:50:48.757Z,2758.00
2023-03-01T08:51:48.679Z,2214.00
2023-03-01T08:52:48.963Z,2201.00
2023-03-01T08:53:50.286Z,2988.00
2023-03-01T08:54:48.669Z,3300.00
2023-03-01T08:55:50.487Z,3080.00
2023-03-01T08:56:48.444Z,2703.00
2023-03-01T08:57:48.258Z,2749.00
2023-03-01T08:58:48.185Z,3075.00
2023-03-01T08:59:48.140Z,2872.00
2023-03-01T09:00:48.102Z,2692.00
2023-03-01T09:01:48.682Z,2883.00
2023-03-01T09:02:47.955Z,2954.00
2023-03-01T09:03:47.911Z,2712.00
2023-03-01T09:04:47.828Z,2780.00
2023-03-01T09:05:47.909Z,3062.00
2023-03-01T09:06:47.702Z,2671.00
2023-03-01T09:07:47.640Z,2235.00
2023-03-01T09:08:47.586Z,2443.00
2023-03-01T09:09:47.513Z,2501.00
2023-03-01T09:10:47.490Z,2577.00
2023-03-01T09:11:47.759Z,2715.00
2023-03-01T09:12:47.332Z,2667.00
2023-03-01T09:13:47.278Z,2907.00
2023-03-01T09:16:26.458Z,3833.00
2023-03-01T09:17:27.236Z,3668.00
2023-03-01T09:18:27.223Z,1433.00
2023-03-01T09:19:27.538Z,2642.00
2023-03-01T09:20:27.082Z,12589.00
2023-03-01T09:21:39.708Z,10480.00
2023-03-01T09:22:26.969Z,3141.00
2023-03-01T09:23:26.878Z,12219.00
2023-03-01T09:24:26.857Z,15794.00
2023-03-01T09:25:26.735Z,10180.00
2023-03-01T09:26:26.694Z,6774.00
2023-03-01T09:27:26.761Z,1986.00
2023-03-01T09:28:30.139Z,3913.00
2023-03-01T09:29:26.517Z,6721.00
2023-03-01T09:30:26.455Z,11122.00
2023-03-01T09:31:26.397Z,6854.00
2023-03-01T09:32:26.385Z,4344.00
2023-03-01T09:33:26.280Z,3046.00
2023-03-01T09:34:26.197Z,3353.00
2023-03-01T09:35:26.136Z,2831.00
2023-03-01T09:36:26.104Z,2508.00
2023-03-01T09:37:26.018Z,2384.00
2023-03-01T09:38:26.993Z,2301.00
2023-03-01T09:41:04.792Z,2410.00
2023-03-01T09:42:05.687Z,2301.00
2023-03-01T09:43:05.630Z,2222.00
2023-03-01T09:44:05.586Z,2611.00
2023-03-01T09:45:05.497Z,3096.00
2023-03-01T09:46:05.500Z,3003.00
2023-03-01T09:47:05.390Z,2943.00
2023-03-01T09:48:05.311Z,3090.00
2023-03-01T09:49:05.277Z,3004.00
2023-03-01T09:50:05.188Z,1054.00
2023-03-01T09:52:14.316Z,11748.00
2023-03-01T09:53:15.232Z,12104.00
2023-03-01T09:54:15.253Z,4774.00
2023-03-01T09:55:15.086Z,8109.00
2023-03-01T09:56:15.064Z,9322.00
2023-03-01T09:57:14.977Z,10059.00
2023-03-01T09:58:14.922Z,12356.00
2023-03-01T09:59:14.891Z,11932.00
2023-03-01T10:00:14.798Z,17587.00
2023-03-01T10:01:14.758Z,20419.00
2023-03-01T10:02:14.658Z,12888.00
2023-03-01T10:03:14.669Z,6944.00
2023-03-01T10:04:14.651Z,12598.00
2023-03-01T10:05:14.536Z,12087.00
2023-03-01T10:06:27.608Z,12752.00
2023-03-01T10:07:14.358Z,10161.00
2023-03-01T10:08:14.320Z,6291.00
2023-03-01T10:09:35.245Z,3831.00
2023-03-01T10:10:14.653Z,3978.00
2023-03-01T10:11:14.898Z,3840.00
2023-03-01T10:12:14.020Z,3566.00
2023-03-01T10:13:14.163Z,3689.00
2023-03-01T10:14:13.944Z,3588.00
2023-03-01T10:15:13.848Z,3422.00
2023-03-01T10:16:13.833Z,3476.00
2023-03-01T10:17:13.750Z,3431.00
2023-03-01T10:18:13.698Z,3393.00
2023-03-01T10:19:13.597Z,3468.00
2023-03-01T10:20:13.539Z,3473.00
2023-03-01T10:21:13.535Z,3443.00
2023-03-01T10:22:13.415Z,3402.00
2023-03-01T10:23:13.374Z,3245.00
2023-03-01T10:24:13.523Z,3247.00
2023-03-01T10:25:13.223Z,3334.00
2023-03-01T10:26:13.133Z,3336.00
2023-03-01T10:27:34.080Z,3542.00
2023-03-01T10:28:13.047Z,3701.00
2023-03-01T10:29:13.071Z,3582.00
2023-03-01T10:30:12.896Z,3510.00
2023-03-01T10:31:12.871Z,3727.00
2023-03-01T10:32:12.812Z,3860.00
2023-03-01T10:33:12.734Z,3910.00
2023-03-01T10:34:12.690Z,4080.00
2023-03-01T10:35:12.574Z,4156.00
2023-03-01T10:36:12.541Z,4170.00
2023-03-01T10:37:12.456Z,4184.00
2023-03-01T10:38:12.468Z,4076.00
2023-03-01T10:39:12.380Z,3938.00
2023-03-01T10:40:12.386Z,3847.00
2023-03-01T10:41:12.272Z,3825.00
2023-03-01T10:42:12.135Z,3821.00
2023-03-01T10:43:12.071Z,3784.00
2023-03-01T10:44:12.007Z,3838.00
2023-03-01T10:45:11.971Z,3861.00
2023-03-01T10:46:12.032Z,3856.00
2023-03-01T10:47:11.865Z,3783.00
2023-03-01T10:48:11.788Z,3759.00
2023-03-01T10:49:11.756Z,3767.00
2023-03-01T10:50:11.670Z,3742.00
2023-03-01T10:51:11.638Z,3741.00
2023-03-01T10:52:11.533Z,3838.00
2023-03-01T10:53:11.569Z,3952.00
2023-03-01T10:54:12.275Z,3911.00
2023-03-01T10:55:11.365Z,3773.00
2023-03-01T10:56:11.256Z,3730.00
2023-03-01T10:57:11.531Z,3776.00
2023-03-01T10:58:11.193Z,3829.00
2023-03-01T10:59:11.097Z,3775.00
2023-03-01T11:00:11.010Z,3830.00
2023-03-01T11:01:10.975Z,3794.00
2023-03-01T11:02:23.572Z,3676.00
2023-03-01T11:04:20.062Z,3428.00
2023-03-01T11:05:20.954Z,3480.00
2023-03-01T11:06:20.925Z,3423.00
2023-03-01T11:07:20.811Z,3368.00
2023-03-01T11:08:20.741Z,3323.00
2023-03-01T11:09:20.736Z,3282.00
2023-03-01T11:10:20.656Z,3163.00
2023-03-01T11:11:20.611Z,3089.00
2023-03-01T11:12:20.548Z,3060.00
2023-03-01T11:13:21.320Z,3000.00
2023-03-01T11:14:26.743Z,2953.00
2023-03-01T11:15:20.348Z,2943.00
2023-03-01T11:16:20.385Z,2923.00
2023-03-01T11:17:21.192Z,2896.00
2023-03-01T11:18:40.553Z,2836.00
2023-03-01T11:19:20.138Z,2818.00
2023-03-01T11:20:20.033Z,2767.00
2023-03-01T11:21:19.943Z,2722.00
2023-03-01T11:22:19.965Z,2704.00
2023-03-01T11:23:19.857Z,2670.00
2023-03-01T11:24:19.775Z,2634.00
2023-03-01T11:25:19.708Z,2585.00
2023-03-01T11:26:19.658Z,2555.00
2023-03-01T11:27:19.597Z,2511.00
2023-03-01T11:28:19.494Z,2465.00
2023-03-01T11:29:19.431Z,2439.00
2023-03-01T11:30:19.420Z,2404.00
2023-03-01T11:31:19.424Z,2381.00
2023-03-01T11:32:19.358Z,2335.00
2023-03-01T11:33:19.209Z,2279.00
2023-03-01T11:34:19.141Z,2216.00
2023-03-01T11:35:19.077Z,2167.00
2023-03-01T11:36:19.074Z,2130.00
2023-03-01T11:37:18.930Z,2109.00
2023-03-01T11:38:18.869Z,2106.00
2023-03-01T11:39:18.891Z,2070.00
2023-03-01T11:40:18.735Z,2045.00
2023-03-01T11:41:18.670Z,2081.00
2023-03-01T11:42:19.559Z,2025.00
2023-03-01T11:43:18.598Z,1933.00
2023-03-01T11:44:18.489Z,1862.00
2023-03-01T11:45:18.463Z,1816.00
2023-03-01T11:46:18.461Z,1775.00
2023-03-01T11:47:18.480Z,1720.00
2023-03-01T11:48:18.263Z,1666.00
2023-03-01T11:49:18.183Z,1632.00
2023-03-01T11:50:18.161Z,1597.00
2023-03-01T11:51:18.096Z,1557.00
2023-03-01T11:52:18.034Z,1515.00
2023-03-01T11:53:17.950Z,1471.00
2023-03-01T11:54:17.884Z,1418.00
2023-03-01T11:55:17.871Z,1368.00
2023-03-01T11:56:17.778Z,1320.00
2023-03-01T11:57:17.762Z,1286.00
2023-03-01T11:58:17.652Z,1251.00
2023-03-01T11:59:17.573Z,1220.00
2023-03-01T12:00:17.528Z,1191.00
2023-03-01T12:01:17.460Z,1167.00
2023-03-01T12:02:17.406Z,1141.00
2023-03-01T12:03:17.332Z,1132.00
2023-03-01T12:04:17.324Z,1132.00
2023-03-01T12:05:17.227Z,1139.00
2023-03-01T12:06:17.175Z,1154.00
2023-03-01T12:07:17.054Z,1170.00
2023-03-01T12:08:17.006Z,1171.00
2023-03-01T12:09:17.024Z,1167.00
2023-03-01T12:10:16.911Z,1157.00
2023-03-01T12:11:16.860Z,1160.00
2023-03-01T12:12:16.768Z,1182.00
2023-03-01T12:13:16.766Z,1215.00
2023-03-01T12:14:16.634Z,1232.00
2023-03-01T12:15:37.586Z,1268.00
2023-03-01T12:16:23.089Z,1293.00
2023-03-01T12:17:16.529Z,1398.00
2023-03-01T12:18:16.454Z,1413.00
2023-03-01T12:19:16.358Z,1431.00
2023-03-01T12:20:16.293Z,1494.00
2023-03-01T12:21:16.224Z,1569.00
2023-03-01T12:22:16.116Z,1387.00
2023-03-01T12:23:20.905Z,825.00
2023-03-01T12:24:15.993Z,4044.00
2023-03-01T12:25:15.981Z,16259.00
2023-03-01T12:26:15.915Z,11785.00
2023-03-01T12:27:15.844Z,6434.00
2023-03-01T12:28:15.775Z,5879.00
2023-03-01T12:29:15.731Z,13102.00
2023-03-01T12:30:15.703Z,10527.00
2023-03-01T12:31:15.689Z,5688.00
2023-03-01T12:32:15.675Z,10073.00
2023-03-01T12:34:54.462Z,5692.00
2023-03-01T12:35:55.426Z,2193.00
2023-03-01T12:36:55.291Z,10924.00
2023-03-01T12:37:55.288Z,5570.00
2023-03-01T12:38:55.201Z,7247.00
2023-03-01T12:39:55.127Z,3765.00
2023-03-01T12:40:55.065Z,7090.00
2023-03-01T12:41:55.002Z,14085.00
2023-03-01T12:42:54.957Z,10843.00
2023-03-01T12:43:55.368Z,8527.00
2023-03-01T12:44:54.800Z,5565.00
2023-03-01T12:45:54.811Z,7700.00
2023-03-01T12:46:54.709Z,5711.00
2023-03-01T12:47:54.625Z,3783.00
2023-03-01T12:48:54.589Z,1392.00
2023-03-01T12:49:54.618Z,1414.00
2023-03-01T12:50:54.588Z,6908.00
2023-03-01T12:51:54.347Z,6872.00
2023-03-01T12:52:54.321Z,3200.00
2023-03-01T12:53:54.283Z,2059.00
2023-03-01T12:54:54.167Z,1702.00
2023-03-01T12:55:54.101Z,743.00
2023-03-01T12:56:54.083Z,861.00
2023-03-01T12:57:53.974Z,2135.00